createdAt,value
2019-05-20T00:02:00.718Z,7.89
2019-05-20T00:07:06.758Z,12.56
2019-05-20T00:12:12.774Z,8.16
2019-05-20T00:17:18.793Z,10.63
2019-05-20T00:22:24.785Z,6.94
2019-05-20T00:27:30.797Z,7.15
2019-05-20T00:32:41.132Z,9.98
2019-05-20T00:37:42.482Z,7.14
2019-05-20T00:42:48.513Z,6.97
2019-05-20T00:47:54.531Z,7.73
2019-05-20T00:53:00.544Z,6.50
2019-05-20T00:58:06.557Z,5.84
2019-05-20T01:03:12.560Z,6.39
2019-05-20T01:08:18.635Z,7.71
2019-05-20T01:13:24.643Z,9.96
2019-05-20T01:18:30.619Z,9.03
2019-05-20T01:23:36.627Z,9.45
2019-05-20T01:28:42.639Z,8.51
2019-05-20T01:33:48.619Z,7.34
2019-05-20T01:38:54.641Z,7.52
2019-05-20T01:44:00.678Z,10.62
2019-05-20T01:49:06.660Z,7.30
2019-05-20T01:54:12.633Z,8.10
2019-05-20T01:59:18.612Z,9.45
2019-05-20T02:04:24.630Z,9.94
2019-05-20T02:09:30.635Z,9.32
2019-05-20T02:14:36.640Z,8.80
2019-05-20T02:19:42.647Z,8.26
2019-05-20T02:24:48.657Z,11.50
2019-05-20T02:29:54.650Z,10.15
2019-05-20T02:35:00.713Z,9.28
2019-05-20T02:40:06.785Z,14.18
2019-05-20T02:45:12.765Z,33.43
2019-05-20T02:50:18.739Z,45.52
2019-05-20T02:55:24.778Z,46.90
2019-05-20T03:00:30.784Z,48.95
2019-05-20T03:05:36.809Z,47.57
2019-05-20T03:10:42.832Z,66.32
2019-05-20T03:15:48.869Z,49.76
2019-05-20T03:20:54.888Z,49.38
2019-05-20T03:26:00.913Z,50.26
2019-05-20T03:31:06.970Z,75.34
2019-05-20T03:36:12.974Z,74.52
2019-05-20T03:41:18.980Z,51.57
2019-05-20T03:46:25.057Z,52.02
2019-05-20T03:51:31.044Z,52.56
2019-05-20T03:56:37.029Z,51.75
2019-05-20T04:01:43.029Z,52.06
2019-05-20T04:06:49.013Z,78.71
2019-05-20T04:11:55.002Z,52.26
2019-05-20T04:17:01.031Z,47.62
2019-05-20T04:22:07.033Z,51.84
2019-05-20T04:27:13.023Z,78.06
2019-05-20T04:32:19.060Z,51.64
2019-05-20T04:37:25.043Z,77.05
2019-05-20T04:42:31.047Z,75.69
2019-05-20T04:47:37.041Z,50.56
2019-05-20T04:52:43.047Z,49.01
2019-05-20T04:57:49.093Z,48.22
2019-05-20T05:02:55.154Z,48.78
2019-05-20T05:08:01.187Z,48.40
2019-05-20T05:13:07.191Z,67.20
2019-05-20T05:18:13.235Z,42.08
2019-05-20T05:23:19.300Z,60.55
2019-05-20T05:28:25.288Z,38.14
2019-05-20T05:33:31.335Z,51.96
2019-05-20T05:38:37.362Z,33.24
2019-05-20T05:43:43.334Z,45.59
2019-05-20T05:48:49.343Z,31.56
2019-05-20T05:53:55.413Z,30.75
2019-05-20T05:59:01.461Z,29.84
2019-05-20T06:04:07.509Z,29.17
2019-05-20T06:09:13.502Z,27.77
2019-05-20T06:14:19.588Z,27.86
2019-05-20T06:19:25.603Z,41.67
2019-05-20T06:24:31.699Z,28.58
2019-05-20T06:29:37.651Z,39.96
2019-05-20T06:34:43.723Z,27.08
2019-05-20T06:39:51.313Z,28.17
2019-05-20T06:44:57.452Z,26.48
2019-05-20T06:50:01.464Z,24.90
2019-05-20T06:55:07.439Z,24.71
2019-05-20T07:00:13.547Z,24.77
2019-05-20T07:05:19.959Z,36.31
2019-05-20T07:10:25.997Z,24.64
2019-05-20T07:15:32.074Z,24.63
2019-05-20T07:20:38.096Z,24.74
2019-05-20T07:25:44.134Z,25.64
2019-05-20T07:30:50.151Z,39.46
2019-05-20T07:35:56.126Z,25.72
2019-05-20T07:41:02.111Z,25.88
2019-05-20T07:46:08.166Z,24.81
2019-05-20T07:51:14.421Z,23.39
2019-05-20T07:56:20.424Z,34.87
2019-05-20T08:01:26.473Z,24.86
2019-05-20T08:06:32.510Z,37.12
2019-05-20T08:11:38.571Z,25.49
2019-05-20T08:16:44.648Z,24.75
2019-05-20T08:21:50.679Z,24.76
2019-05-20T08:26:56.690Z,37.29
2019-05-20T08:32:02.742Z,25.81
2019-05-20T08:37:08.799Z,25.35
2019-05-20T08:42:14.793Z,39.75
2019-05-20T08:47:20.925Z,24.70
2019-05-20T08:52:26.963Z,22.80
2019-05-20T08:57:32.999Z,23.36
2019-05-20T09:02:39.137Z,33.00
2019-05-20T09:07:59.840Z,23.26
2019-05-20T09:12:50.707Z,22.09
2019-05-20T09:17:56.781Z,31.35
2019-05-20T09:23:03.040Z,31.44
2019-05-20T09:28:08.780Z,22.57
2019-05-20T09:33:14.821Z,22.74
2019-05-20T09:38:21.460Z,33.43
2019-05-20T09:43:26.365Z,24.11
2019-05-20T09:48:32.447Z,23.57
2019-05-20T09:53:38.511Z,21.95
2019-05-20T09:58:44.555Z,33.25
2019-05-20T10:03:50.564Z,22.66
2019-05-20T10:08:56.556Z,31.80
2019-05-20T10:14:02.555Z,21.82
2019-05-20T10:19:08.548Z,31.91
2019-05-20T10:24:14.537Z,21.05
2019-05-20T10:29:20.553Z,22.16
2019-05-20T10:34:26.602Z,23.28
2019-05-20T10:39:32.567Z,36.80
2019-05-20T10:44:41.702Z,40.24
2019-05-20T10:49:44.116Z,25.73
2019-05-20T10:54:50.150Z,39.02
2019-05-20T10:59:56.162Z,26.10
2019-05-20T11:05:02.177Z,39.32
2019-05-20T11:10:08.295Z,26.49
2019-05-20T11:15:14.318Z,25.88
2019-05-20T11:20:20.473Z,26.78
2019-05-20T11:25:26.451Z,42.06
2019-05-20T11:30:32.498Z,29.53
2019-05-20T11:35:38.490Z,31.70
2019-05-20T11:40:44.554Z,31.28
2019-05-20T11:45:50.529Z,41.08
2019-05-20T11:50:56.519Z,43.45
2019-05-20T11:56:02.596Z,44.34
2019-05-20T12:01:08.623Z,30.82
2019-05-20T12:06:14.656Z,30.93
2019-05-20T12:11:20.683Z,29.89
2019-05-20T12:16:26.659Z,28.49
2019-05-20T12:21:32.674Z,41.37
2019-05-20T12:26:38.738Z,26.42
2019-05-20T12:31:44.892Z,26.37
2019-05-20T12:36:50.938Z,38.77
2019-05-20T12:41:57.019Z,27.81
2019-05-20T12:47:03.036Z,27.71
2019-05-20T12:52:09.078Z,27.06
2019-05-20T12:57:15.082Z,25.85
2019-05-20T13:02:21.079Z,38.26
2019-05-20T13:07:27.154Z,25.48
2019-05-20T13:12:33.172Z,28.05
2019-05-20T13:17:43.696Z,25.32
2019-05-20T13:22:44.680Z,24.63
2019-05-20T13:27:50.667Z,24.58
2019-05-20T13:32:56.818Z,24.55
2019-05-20T13:38:02.804Z,25.15
2019-05-20T13:43:08.923Z,24.08
2019-05-20T13:48:14.950Z,35.36
2019-05-20T13:53:22.768Z,24.51
2019-05-20T13:58:28.753Z,25.14
2019-05-20T14:03:34.756Z,25.80
2019-05-20T14:08:40.822Z,37.72
2019-05-20T14:13:47.013Z,26.00
2019-05-20T14:18:53.083Z,37.84
2019-05-20T14:23:59.085Z,38.46
2019-05-20T14:29:05.135Z,26.34
2019-05-20T14:34:11.199Z,46.78
2019-05-20T14:39:17.299Z,28.26
2019-05-20T14:44:23.350Z,42.78
2019-05-20T14:49:29.386Z,29.49
2019-05-20T14:54:35.510Z,31.06
2019-05-20T14:59:41.619Z,31.66
2019-05-20T15:04:47.645Z,28.03
2019-05-20T15:09:53.718Z,29.01
2019-05-20T15:14:59.746Z,28.07
2019-05-20T15:20:05.826Z,28.78
2019-05-20T15:25:11.966Z,41.63
2019-05-20T15:30:18.030Z,29.80
2019-05-20T15:35:24.089Z,29.96
2019-05-20T15:40:30.293Z,30.66
2019-05-20T15:45:36.389Z,30.38
2019-05-20T15:50:42.450Z,44.01
2019-05-20T15:55:48.675Z,29.18
2019-05-20T16:00:54.734Z,29.77
2019-05-20T16:06:00.947Z,42.88
2019-05-20T16:11:07.292Z,29.22
2019-05-20T16:16:13.284Z,42.26
2019-05-20T16:21:19.062Z,27.03
2019-05-20T16:26:25.127Z,27.40
2019-05-20T16:31:31.226Z,26.78
2019-05-20T16:36:37.302Z,27.46
2019-05-20T16:41:43.356Z,27.38
2019-05-20T16:46:49.528Z,28.05
2019-05-20T16:51:55.571Z,28.19
2019-05-20T16:57:01.680Z,42.52
2019-05-20T17:02:07.789Z,28.32
2019-05-20T17:07:13.888Z,41.63
2019-05-20T17:12:20.007Z,27.12
2019-05-20T17:17:26.264Z,27.07
2019-05-20T17:22:32.333Z,36.55
2019-05-20T17:27:38.382Z,32.93
2019-05-20T17:32:44.424Z,22.48
2019-05-20T17:37:50.431Z,23.16
2019-05-20T17:42:56.530Z,22.48
2019-05-20T17:48:02.579Z,30.87
2019-05-20T17:53:08.615Z,20.57
2019-05-20T17:58:14.675Z,20.35
2019-05-20T18:03:20.730Z,19.33
2019-05-20T18:08:26.836Z,28.33
2019-05-20T18:13:32.924Z,18.12
2019-05-20T18:18:38.995Z,18.87
2019-05-20T18:23:45.011Z,18.06
2019-05-20T18:28:51.166Z,18.22
2019-05-20T18:33:57.200Z,26.11
2019-05-20T18:39:03.521Z,25.53
2019-05-20T18:44:12.770Z,25.32
2019-05-20T18:49:15.272Z,26.06
2019-05-20T18:54:21.506Z,26.29
2019-05-20T18:59:27.581Z,26.89
2019-05-20T19:04:33.795Z,18.42
2019-05-20T19:09:39.950Z,18.70
2019-05-20T19:14:45.988Z,18.60
2019-05-20T19:19:52.064Z,18.29
2019-05-20T19:24:58.179Z,19.62
2019-05-20T19:30:04.208Z,29.63
2019-05-20T19:35:10.353Z,20.42
2019-05-20T19:40:16.386Z,19.88
2019-05-20T19:45:22.407Z,21.45
2019-05-20T19:50:28.404Z,20.82
2019-05-20T19:55:34.477Z,21.39
2019-05-20T20:00:40.498Z,20.87
2019-05-20T20:05:46.510Z,20.93
2019-05-20T20:10:52.543Z,32.73
2019-05-20T20:15:58.585Z,21.32
2019-05-20T20:21:04.630Z,22.24
2019-05-20T20:26:10.622Z,32.44
2019-05-20T20:31:16.678Z,33.60
2019-05-20T20:36:22.659Z,23.39
2019-05-20T20:41:28.743Z,36.93
2019-05-20T20:46:34.881Z,35.20
2019-05-20T20:51:40.958Z,27.31
2019-05-20T20:56:46.979Z,29.16
2019-05-20T21:01:56.808Z,44.21
2019-05-20T21:06:58.619Z,46.70
2019-05-20T21:12:04.672Z,32.00
2019-05-20T21:17:10.662Z,46.64
2019-05-20T21:22:17.144Z,47.25
2019-05-20T21:27:23.142Z,48.39
2019-05-20T21:32:29.250Z,32.49
2019-05-20T21:37:35.374Z,33.12
2019-05-20T21:42:41.415Z,46.65
2019-05-20T21:47:47.413Z,42.63
2019-05-20T21:52:53.479Z,41.63
2019-05-20T21:57:59.562Z,42.52
2019-05-20T22:03:05.595Z,43.78
2019-05-20T22:08:12.166Z,27.13
2019-05-20T22:13:18.294Z,27.64
2019-05-20T22:18:24.385Z,26.67
2019-05-20T22:23:30.508Z,42.18
2019-05-20T22:28:36.562Z,27.92
2019-05-20T22:33:42.887Z,28.74
2019-05-20T22:38:48.730Z,29.86
2019-05-20T22:43:54.742Z,30.22
2019-05-20T22:49:00.776Z,31.11
2019-05-20T22:54:06.918Z,31.90
2019-05-20T22:59:12.975Z,33.07
2019-05-20T23:04:19.084Z,32.66
2019-05-20T23:09:25.168Z,31.95
2019-05-20T23:14:31.237Z,32.01
2019-05-20T23:19:37.275Z,31.49
2019-05-20T23:24:43.286Z,30.99
2019-05-20T23:29:49.289Z,46.11
2019-05-20T23:34:55.309Z,31.50
2019-05-20T23:40:01.363Z,46.71
2019-05-20T23:45:07.955Z,29.02
2019-05-20T23:50:14.076Z,30.92
2019-05-20T23:55:20.295Z,46.63
